sensor_id;sensor_type;location;lat;lon;timestamp;P1;durP1;ratioP1;P2;durP2;ratioP2
76380;SDS011;65202;52.520;10.528;2023-05-07T00:00:04;27.05;;;18.65;;
76380;SDS011;65202;52.520;10.528;2023-05-07T00:02:36;29.13;;;20.80;;
76380;SDS011;65202;52.520;10.528;2023-05-07T00:05:04;31.08;;;19.50;;
76380;SDS011;65202;52.520;10.528;2023-05-07T00:07:33;26.25;;;18.95;;
76380;SDS011;65202;52.520;10.528;2023-05-07T00:10:01;26.92;;;18.45;;
76380;SDS011;65202;52.520;10.528;2023-05-07T00:12:29;26.38;;;18.70;;
76380;SDS011;65202;52.520;10.528;2023-05-07T00:15:01;25.15;;;16.73;;
76380;SDS011;65202;52.520;10.528;2023-05-07T00:17:30;22.75;;;16.50;;
76380;SDS011;65202;52.520;10.528;2023-05-07T00:19:58;23.33;;;16.30;;
76380;SDS011;65202;52.520;10.528;2023-05-07T00:22:25;24.08;;;15.55;;
76380;SDS011;65202;52.520;10.528;2023-05-07T00:24:52;23.77;;;16.95;;
76380;SDS011;65202;52.520;10.528;2023-05-07T00:27:19;25.40;;;16.52;;
76380;SDS011;65202;52.520;10.528;2023-05-07T00:29:47;22.40;;;14.93;;
76380;SDS011;65202;52.520;10.528;2023-05-07T00:32:14;20.95;;;14.77;;
76380;SDS011;65202;52.520;10.528;2023-05-07T00:34:42;23.48;;;14.70;;
76380;SDS011;65202;52.520;10.528;2023-05-07T00:37:10;20.30;;;14.13;;
76380;SDS011;65202;52.520;10.528;2023-05-07T00:39:38;18.85;;;13.05;;
76380;SDS011;65202;52.520;10.528;2023-05-07T00:42:05;17.45;;;12.23;;
76380;SDS011;65202;52.520;10.528;2023-05-07T00:44:33;15.68;;;12.18;;
76380;SDS011;65202;52.520;10.528;2023-05-07T00:47:01;13.57;;;10.77;;
76380;SDS011;65202;52.520;10.528;2023-05-07T00:49:38;13.15;;;10.45;;
76380;SDS011;65202;52.520;10.528;2023-05-07T00:52:09;11.73;;;9.57;;
76380;SDS011;65202;52.520;10.528;2023-05-07T00:54:40;13.90;;;10.37;;
76380;SDS011;65202;52.520;10.528;2023-05-07T00:57:09;14.52;;;10.40;;
76380;SDS011;65202;52.520;10.528;2023-05-07T00:59:38;14.18;;;10.80;;
76380;SDS011;65202;52.520;10.528;2023-05-07T01:02:07;15.65;;;11.32;;
76380;SDS011;65202;52.520;10.528;2023-05-07T01:04:34;18.50;;;12.02;;
76380;SDS011;65202;52.520;10.528;2023-05-07T01:07:02;15.45;;;11.55;;
76380;SDS011;65202;52.520;10.528;2023-05-07T01:09:31;17.23;;;12.18;;
76380;SDS011;65202;52.520;10.528;2023-05-07T01:11:58;14.88;;;11.70;;
76380;SDS011;65202;52.520;10.528;2023-05-07T01:14:26;17.30;;;12.82;;
76380;SDS011;65202;52.520;10.528;2023-05-07T01:16:54;18.48;;;13.20;;
76380;SDS011;65202;52.520;10.528;2023-05-07T01:19:21;18.85;;;13.13;;
76380;SDS011;65202;52.520;10.528;2023-05-07T01:21:49;18.40;;;13.52;;
76380;SDS011;65202;52.520;10.528;2023-05-07T01:24:17;18.10;;;14.02;;
76380;SDS011;65202;52.520;10.528;2023-05-07T01:26:45;18.25;;;13.07;;
76380;SDS011;65202;52.520;10.528;2023-05-07T01:29:12;20.58;;;12.70;;
76380;SDS011;65202;52.520;10.528;2023-05-07T01:31:40;20.52;;;13.60;;
76380;SDS011;65202;52.520;10.528;2023-05-07T01:34:10;18.73;;;13.35;;
76380;SDS011;65202;52.520;10.528;2023-05-07T01:36:41;17.40;;;13.65;;
76380;SDS011;65202;52.520;10.528;2023-05-07T01:39:11;18.95;;;14.20;;
76380;SDS011;65202;52.520;10.528;2023-05-07T01:41:39;22.67;;;13.98;;
76380;SDS011;65202;52.520;10.528;2023-05-07T01:44:07;17.92;;;13.85;;
76380;SDS011;65202;52.520;10.528;2023-05-07T01:46:36;22.25;;;14.70;;
76380;SDS011;65202;52.520;10.528;2023-05-07T01:49:04;20.92;;;14.80;;
76380;SDS011;65202;52.520;10.528;2023-05-07T01:51:31;19.23;;;13.98;;
76380;SDS011;65202;52.520;10.528;2023-05-07T01:53:59;21.55;;;13.85;;
76380;SDS011;65202;52.520;10.528;2023-05-07T01:56:27;15.55;;;11.82;;
76380;SDS011;65202;52.520;10.528;2023-05-07T01:58:54;15.70;;;11.48;;
76380;SDS011;65202;52.520;10.528;2023-05-07T02:01:21;17.35;;;12.30;;
76380;SDS011;65202;52.520;10.528;2023-05-07T02:03:49;16.65;;;12.02;;
76380;SDS011;65202;52.520;10.528;2023-05-07T02:06:16;18.75;;;12.70;;
76380;SDS011;65202;52.520;10.528;2023-05-07T02:08:43;17.23;;;12.30;;
76380;SDS011;65202;52.520;10.528;2023-05-07T02:11:11;16.00;;;12.35;;
76380;SDS011;65202;52.520;10.528;2023-05-07T02:13:38;16.80;;;12.43;;
76380;SDS011;65202;52.520;10.528;2023-05-07T02:16:05;17.70;;;12.30;;
76380;SDS011;65202;52.520;10.528;2023-05-07T02:18:33;16.45;;;11.70;;
76380;SDS011;65202;52.520;10.528;2023-05-07T02:21:00;19.05;;;12.20;;
76380;SDS011;65202;52.520;10.528;2023-05-07T02:23:27;17.00;;;11.80;;
76380;SDS011;65202;52.520;10.528;2023-05-07T02:25:55;19.35;;;13.30;;
76380;SDS011;65202;52.520;10.528;2023-05-07T02:28:22;15.70;;;13.10;;
76380;SDS011;65202;52.520;10.528;2023-05-07T02:30:49;16.88;;;13.30;;
76380;SDS011;65202;52.520;10.528;2023-05-07T02:33:17;14.95;;;12.15;;
76380;SDS011;65202;52.520;10.528;2023-05-07T02:35:44;13.75;;;12.13;;
76380;SDS011;65202;52.520;10.528;2023-05-07T02:38:11;17.25;;;12.07;;
76380;SDS011;65202;52.520;10.528;2023-05-07T02:40:38;13.35;;;10.93;;
76380;SDS011;65202;52.520;10.528;2023-05-07T02:43:06;16.52;;;11.90;;
76380;SDS011;65202;52.520;10.528;2023-05-07T02:45:33;15.20;;;11.45;;
76380;SDS011;65202;52.520;10.528;2023-05-07T02:48:00;14.50;;;11.68;;
76380;SDS011;65202;52.520;10.528;2023-05-07T02:50:28;15.07;;;12.02;;
76380;SDS011;65202;52.520;10.528;2023-05-07T02:52:55;16.83;;;12.38;;
76380;SDS011;65202;52.520;10.528;2023-05-07T02:55:22;16.38;;;12.35;;
76380;SDS011;65202;52.520;10.528;2023-05-07T02:57:49;18.98;;;12.32;;
76380;SDS011;65202;52.520;10.528;2023-05-07T03:00:17;14.68;;;11.93;;
76380;SDS011;65202;52.520;10.528;2023-05-07T03:02:46;15.32;;;12.13;;
76380;SDS011;65202;52.520;10.528;2023-05-07T03:05:13;15.90;;;12.50;;
76380;SDS011;65202;52.520;10.528;2023-05-07T03:07:41;14.95;;;12.70;;
76380;SDS011;65202;52.520;10.528;2023-05-07T03:10:11;17.08;;;13.50;;
76380;SDS011;65202;52.520;10.528;2023-05-07T03:12:39;18.08;;;14.65;;
76380;SDS011;65202;52.520;10.528;2023-05-07T03:15:06;18.05;;;13.85;;
76380;SDS011;65202;52.520;10.528;2023-05-07T03:17:34;16.90;;;14.02;;
76380;SDS011;65202;52.520;10.528;2023-05-07T03:20:02;16.55;;;13.90;;
76380;SDS011;65202;52.520;10.528;2023-05-07T03:22:29;15.85;;;13.32;;
76380;SDS011;65202;52.520;10.528;2023-05-07T03:24:56;16.13;;;13.45;;
76380;SDS011;65202;52.520;10.528;2023-05-07T03:27:24;16.85;;;13.98;;
76380;SDS011;65202;52.520;10.528;2023-05-07T03:29:51;16.17;;;13.68;;
76380;SDS011;65202;52.520;10.528;2023-05-07T03:32:18;18.05;;;14.77;;
76380;SDS011;65202;52.520;10.528;2023-05-07T03:34:45;17.95;;;15.18;;
76380;SDS011;65202;52.520;10.528;2023-05-07T03:37:13;20.35;;;15.93;;
76380;SDS011;65202;52.520;10.528;2023-05-07T03:39:40;19.85;;;15.68;;
76380;SDS011;65202;52.520;10.528;2023-05-07T03:42:07;20.02;;;15.65;;
76380;SDS011;65202;52.520;10.528;2023-05-07T03:44:34;18.30;;;15.38;;
76380;SDS011;65202;52.520;10.528;2023-05-07T03:47:03;17.60;;;14.95;;
76380;SDS011;65202;52.520;10.528;2023-05-07T03:49:31;18.80;;;15.30;;
76380;SDS011;65202;52.520;10.528;2023-05-07T03:51:58;17.45;;;14.70;;
76380;SDS011;65202;52.520;10.528;2023-05-07T03:54:25;19.80;;;15.65;;
76380;SDS011;65202;52.520;10.528;2023-05-07T03:56:52;18.63;;;15.65;;
76380;SDS011;65202;52.520;10.528;2023-05-07T03:59:19;19.67;;;15.90;;
76380;SDS011;65202;52.520;10.528;2023-05-07T04:01:47;18.27;;;15.02;;
76380;SDS011;65202;52.520;10.528;2023-05-07T04:04:15;17.13;;;14.45;;
76380;SDS011;65202;52.520;10.528;2023-05-07T04:06:42;15.68;;;13.18;;
76380;SDS011;65202;52.520;10.528;2023-05-07T04:09:10;16.00;;;12.50;;
76380;SDS011;65202;52.520;10.528;2023-05-07T04:11:37;15.25;;;12.90;;
76380;SDS011;65202;52.520;10.528;2023-05-07T04:14:06;14.45;;;12.57;;
76380;SDS011;65202;52.520;10.528;2023-05-07T04:16:34;16.85;;;13.02;;
76380;SDS011;65202;52.520;10.528;2023-05-07T04:19:02;17.27;;;12.45;;
76380;SDS011;65202;52.520;10.528;2023-05-07T04:21:29;14.13;;;12.30;;
76380;SDS011;65202;52.520;10.528;2023-05-07T04:23:56;15.75;;;12.90;;
76380;SDS011;65202;52.520;10.528;2023-05-07T04:26:23;14.30;;;12.02;;
76380;SDS011;65202;52.520;10.528;2023-05-07T04:28:51;14.98;;;11.65;;
76380;SDS011;65202;52.520;10.528;2023-05-07T04:31:18;15.77;;;13.02;;
76380;SDS011;65202;52.520;10.528;2023-05-07T04:33:45;16.90;;;13.45;;
76380;SDS011;65202;52.520;10.528;2023-05-07T04:36:12;16.05;;;13.38;;
76380;SDS011;65202;52.520;10.528;2023-05-07T04:38:40;16.23;;;13.20;;
76380;SDS011;65202;52.520;10.528;2023-05-07T04:41:08;15.48;;;12.65;;
76380;SDS011;65202;52.520;10.528;2023-05-07T04:43:36;14.15;;;12.35;;
76380;SDS011;65202;52.520;10.528;2023-05-07T04:46:03;14.00;;;11.60;;
76380;SDS011;65202;52.520;10.528;2023-05-07T04:48:30;14.00;;;12.20;;
76380;SDS011;65202;52.520;10.528;2023-05-07T04:50:57;15.93;;;12.80;;
76380;SDS011;65202;52.520;10.528;2023-05-07T04:53:25;15.98;;;12.82;;
76380;SDS011;65202;52.520;10.528;2023-05-07T04:55:55;16.67;;;12.18;;
76380;SDS011;65202;52.520;10.528;2023-05-07T04:58:24;16.80;;;12.32;;
76380;SDS011;65202;52.520;10.528;2023-05-07T05:00:51;15.32;;;13.20;;
76380;SDS011;65202;52.520;10.528;2023-05-07T05:03:18;14.82;;;12.60;;
76380;SDS011;65202;52.520;10.528;2023-05-07T05:05:46;16.40;;;13.55;;
76380;SDS011;65202;52.520;10.528;2023-05-07T05:08:15;14.80;;;12.80;;
76380;SDS011;65202;52.520;10.528;2023-05-07T05:10:42;17.17;;;13.00;;
76380;SDS011;65202;52.520;10.528;2023-05-07T05:13:10;17.00;;;13.57;;
76380;SDS011;65202;52.520;10.528;2023-05-07T05:15:39;16.35;;;14.02;;
76380;SDS011;65202;52.520;10.528;2023-05-07T05:18:07;16.52;;;13.88;;
76380;SDS011;65202;52.520;10.528;2023-05-07T05:20:34;17.23;;;13.82;;
76380;SDS011;65202;52.520;10.528;2023-05-07T05:23:01;16.73;;;13.88;;
76380;SDS011;65202;52.520;10.528;2023-05-07T05:25:28;17.15;;;14.30;;
76380;SDS011;65202;52.520;10.528;2023-05-07T05:27:55;17.58;;;13.77;;
76380;SDS011;65202;52.520;10.528;2023-05-07T05:30:23;17.17;;;13.63;;
76380;SDS011;65202;52.520;10.528;2023-05-07T05:32:50;17.48;;;14.45;;
76380;SDS011;65202;52.520;10.528;2023-05-07T05:35:17;18.75;;;13.95;;
76380;SDS011;65202;52.520;10.528;2023-05-07T05:37:45;17.65;;;14.52;;
76380;SDS011;65202;52.520;10.528;2023-05-07T05:40:12;16.83;;;13.98;;
76380;SDS011;65202;52.520;10.528;2023-05-07T05:42:39;18.75;;;15.20;;
76380;SDS011;65202;52.520;10.528;2023-05-07T05:45:07;19.45;;;15.80;;
76380;SDS011;65202;52.520;10.528;2023-05-07T05:47:35;18.52;;;15.10;;
76380;SDS011;65202;52.520;10.528;2023-05-07T05:50:02;20.80;;;15.93;;
76380;SDS011;65202;52.520;10.528;2023-05-07T05:52:30;19.88;;;15.73;;
76380;SDS011;65202;52.520;10.528;2023-05-07T05:54:57;19.25;;;15.45;;
76380;SDS011;65202;52.520;10.528;2023-05-07T05:57:24;19.52;;;15.80;;
76380;SDS011;65202;52.520;10.528;2023-05-07T05:59:54;22.10;;;15.93;;
76380;SDS011;65202;52.520;10.528;2023-05-07T06:02:21;17.52;;;14.95;;
76380;SDS011;65202;52.520;10.528;2023-05-07T06:04:48;18.02;;;15.48;;
76380;SDS011;65202;52.520;10.528;2023-05-07T06:07:16;22.90;;;14.85;;
76380;SDS011;65202;52.520;10.528;2023-05-07T06:09:43;21.02;;;15.85;;
76380;SDS011;65202;52.520;10.528;2023-05-07T06:12:11;19.33;;;15.75;;
76380;SDS011;65202;52.520;10.528;2023-05-07T06:14:38;19.23;;;15.82;;
76380;SDS011;65202;52.520;10.528;2023-05-07T06:17:07;19.27;;;15.63;;
76380;SDS011;65202;52.520;10.528;2023-05-07T06:19:34;18.52;;;15.95;;
76380;SDS011;65202;52.520;10.528;2023-05-07T06:22:02;20.85;;;16.33;;
76380;SDS011;65202;52.520;10.528;2023-05-07T06:24:29;22.05;;;16.95;;
76380;SDS011;65202;52.520;10.528;2023-05-07T06:26:56;20.60;;;16.00;;
76380;SDS011;65202;52.520;10.528;2023-05-07T06:29:25;24.27;;;18.35;;
76380;SDS011;65202;52.520;10.528;2023-05-07T06:31:52;23.98;;;17.15;;
76380;SDS011;65202;52.520;10.528;2023-05-07T06:34:20;21.08;;;15.60;;
76380;SDS011;65202;52.520;10.528;2023-05-07T06:36:48;20.13;;;15.55;;
76380;SDS011;65202;52.520;10.528;2023-05-07T06:39:15;23.00;;;16.33;;
76380;SDS011;65202;52.520;10.528;2023-05-07T06:41:42;19.65;;;15.52;;
76380;SDS011;65202;52.520;10.528;2023-05-07T06:44:09;21.70;;;16.48;;
76380;SDS011;65202;52.520;10.528;2023-05-07T06:46:36;24.05;;;15.60;;
76380;SDS011;65202;52.520;10.528;2023-05-07T06:49:04;21.38;;;16.50;;
76380;SDS011;65202;52.520;10.528;2023-05-07T06:51:31;19.38;;;16.15;;
76380;SDS011;65202;52.520;10.528;2023-05-07T06:53:58;19.67;;;15.38;;
76380;SDS011;65202;52.520;10.528;2023-05-07T06:56:26;20.30;;;15.88;;
76380;SDS011;65202;52.520;10.528;2023-05-07T06:58:53;23.88;;;16.45;;
76380;SDS011;65202;52.520;10.528;2023-05-07T07:01:20;22.23;;;16.02;;
76380;SDS011;65202;52.520;10.528;2023-05-07T07:03:47;21.13;;;15.75;;
76380;SDS011;65202;52.520;10.528;2023-05-07T07:06:15;22.90;;;17.17;;
76380;SDS011;65202;52.520;10.528;2023-05-07T07:08:42;22.58;;;17.08;;
76380;SDS011;65202;52.520;10.528;2023-05-07T07:11:09;21.38;;;16.45;;
76380;SDS011;65202;52.520;10.528;2023-05-07T07:13:37;22.08;;;17.45;;
76380;SDS011;65202;52.520;10.528;2023-05-07T07:16:04;20.73;;;15.95;;
76380;SDS011;65202;52.520;10.528;2023-05-07T07:18:31;20.30;;;15.82;;
76380;SDS011;65202;52.520;10.528;2023-05-07T07:20:58;20.35;;;15.95;;
76380;SDS011;65202;52.520;10.528;2023-05-07T07:23:25;19.60;;;16.08;;
76380;SDS011;65202;52.520;10.528;2023-05-07T07:25:53;19.13;;;15.15;;
76380;SDS011;65202;52.520;10.528;2023-05-07T07:28:20;19.13;;;14.68;;
76380;SDS011;65202;52.520;10.528;2023-05-07T07:30:48;17.50;;;14.45;;
76380;SDS011;65202;52.520;10.528;2023-05-07T07:33:16;17.83;;;13.80;;
76380;SDS011;65202;52.520;10.528;2023-05-07T07:35:43;16.75;;;13.57;;
76380;SDS011;65202;52.520;10.528;2023-05-07T07:38:10;16.92;;;13.63;;
76380;SDS011;65202;52.520;10.528;2023-05-07T07:40:38;19.10;;;13.98;;
76380;SDS011;65202;52.520;10.528;2023-05-07T07:43:05;17.38;;;13.75;;
76380;SDS011;65202;52.520;10.528;2023-05-07T07:45:33;18.23;;;13.95;;
76380;SDS011;65202;52.520;10.528;2023-05-07T07:48:00;18.45;;;13.52;;
76380;SDS011;65202;52.520;10.528;2023-05-07T07:50:27;17.00;;;12.90;;
76380;SDS011;65202;52.520;10.528;2023-05-07T07:53:10;17.05;;;13.23;;
76380;SDS011;65202;52.520;10.528;2023-05-07T07:55:38;20.10;;;13.20;;
76380;SDS011;65202;52.520;10.528;2023-05-07T07:58:07;17.15;;;13.60;;
76380;SDS011;65202;52.520;10.528;2023-05-07T08:00:35;15.18;;;12.60;;
76380;SDS011;65202;52.520;10.528;2023-05-07T08:03:03;16.00;;;13.07;;
76380;SDS011;65202;52.520;10.528;2023-05-07T08:05:32;16.83;;;13.00;;
76380;SDS011;65202;52.520;10.528;2023-05-07T08:07:59;15.30;;;12.75;;
76380;SDS011;65202;52.520;10.528;2023-05-07T08:10:26;15.98;;;13.23;;
76380;SDS011;65202;52.520;10.528;2023-05-07T08:12:53;18.25;;;13.43;;
76380;SDS011;65202;52.520;10.528;2023-05-07T08:15:21;14.65;;;12.32;;
76380;SDS011;65202;52.520;10.528;2023-05-07T08:17:48;16.73;;;13.20;;
76380;SDS011;65202;52.520;10.528;2023-05-07T08:20:15;16.17;;;13.75;;
76380;SDS011;65202;52.520;10.528;2023-05-07T08:22:42;17.60;;;13.45;;
76380;SDS011;65202;52.520;10.528;2023-05-07T08:25:10;13.77;;;11.75;;
76380;SDS011;65202;52.520;10.528;2023-05-07T08:27:37;15.30;;;12.30;;
76380;SDS011;65202;52.520;10.528;2023-05-07T08:30:04;15.35;;;12.75;;
76380;SDS011;65202;52.520;10.528;2023-05-07T08:32:32;16.35;;;13.07;;
76380;SDS011;65202;52.520;10.528;2023-05-07T08:34:59;14.85;;;12.70;;
76380;SDS011;65202;52.520;10.528;2023-05-07T08:37:27;14.65;;;12.70;;
76380;SDS011;65202;52.520;10.528;2023-05-07T08:39:54;17.05;;;13.13;;
76380;SDS011;65202;52.520;10.528;2023-05-07T08:42:23;22.17;;;15.00;;
76380;SDS011;65202;52.520;10.528;2023-05-07T08:44:51;15.05;;;12.80;;
76380;SDS011;65202;52.520;10.528;2023-05-07T08:47:22;13.85;;;11.80;;
76380;SDS011;65202;52.520;10.528;2023-05-07T08:49:56;15.13;;;12.40;;
76380;SDS011;65202;52.520;10.528;2023-05-07T08:52:23;16.98;;;11.95;;
76380;SDS011;65202;52.520;10.528;2023-05-07T08:54:51;15.48;;;11.65;;
76380;SDS011;65202;52.520;10.528;2023-05-07T08:57:18;17.13;;;11.32;;
76380;SDS011;65202;52.520;10.528;2023-05-07T08:59:47;12.73;;;10.32;;
76380;SDS011;65202;52.520;10.528;2023-05-07T09:02:14;12.80;;;9.63;;
76380;SDS011;65202;52.520;10.528;2023-05-07T09:04:43;12.18;;;10.02;;
76380;SDS011;65202;52.520;10.528;2023-05-07T09:07:10;11.18;;;9.63;;
76380;SDS011;65202;52.520;10.528;2023-05-07T09:09:37;13.18;;;9.57;;
76380;SDS011;65202;52.520;10.528;2023-05-07T09:12:05;11.65;;;10.13;;
76380;SDS011;65202;52.520;10.528;2023-05-07T09:14:32;11.52;;;9.52;;
76380;SDS011;65202;52.520;10.528;2023-05-07T09:17:00;14.40;;;10.10;;
76380;SDS011;65202;52.520;10.528;2023-05-07T09:19:27;11.93;;;10.10;;
76380;SDS011;65202;52.520;10.528;2023-05-07T09:22:01;11.32;;;9.50;;
76380;SDS011;65202;52.520;10.528;2023-05-07T09:24:31;11.30;;;9.32;;
76380;SDS011;65202;52.520;10.528;2023-05-07T09:27:01;12.00;;;9.35;;
76380;SDS011;65202;52.520;10.528;2023-05-07T09:29:29;11.30;;;9.38;;
76380;SDS011;65202;52.520;10.528;2023-05-07T09:32:02;11.30;;;10.07;;
76380;SDS011;65202;52.520;10.528;2023-05-07T09:34:32;13.32;;;9.90;;
76380;SDS011;65202;52.520;10.528;2023-05-07T09:37:00;12.63;;;9.57;;
76380;SDS011;65202;52.520;10.528;2023-05-07T09:39:38;13.77;;;10.70;;
76380;SDS011;65202;52.520;10.528;2023-05-07T09:42:11;11.90;;;9.63;;
76380;SDS011;65202;52.520;10.528;2023-05-07T09:44:39;11.18;;;9.52;;
76380;SDS011;65202;52.520;10.528;2023-05-07T09:47:07;10.93;;;9.52;;
76380;SDS011;65202;52.520;10.528;2023-05-07T09:49:35;13.05;;;10.55;;
76380;SDS011;65202;52.520;10.528;2023-05-07T09:52:06;12.32;;;10.25;;
76380;SDS011;65202;52.520;10.528;2023-05-07T09:54:35;13.07;;;10.50;;
76380;SDS011;65202;52.520;10.528;2023-05-07T09:57:05;10.38;;;9.00;;
76380;SDS011;65202;52.520;10.528;2023-05-07T09:59:33;12.80;;;9.55;;
76380;SDS011;65202;52.520;10.528;2023-05-07T10:02:04;13.48;;;9.50;;
76380;SDS011;65202;52.520;10.528;2023-05-07T10:04:33;12.32;;;9.52;;
76380;SDS011;65202;52.520;10.528;2023-05-07T10:07:01;13.15;;;10.07;;
76380;SDS011;65202;52.520;10.528;2023-05-07T10:09:31;12.85;;;9.52;;
76380;SDS011;65202;52.520;10.528;2023-05-07T10:11:59;11.90;;;10.70;;
76380;SDS011;65202;52.520;10.528;2023-05-07T10:14:27;11.93;;;10.55;;
76380;SDS011;65202;52.520;10.528;2023-05-07T10:16:55;13.05;;;10.23;;
76380;SDS011;65202;52.520;10.528;2023-05-07T10:19:24;12.43;;;10.18;;
76380;SDS011;65202;52.520;10.528;2023-05-07T10:21:56;12.43;;;11.00;;
76380;SDS011;65202;52.520;10.528;2023-05-07T10:24:31;14.23;;;11.35;;
76380;SDS011;65202;52.520;10.528;2023-05-07T10:27:04;14.18;;;10.65;;
76380;SDS011;65202;52.520;10.528;2023-05-07T10:29:51;14.60;;;11.00;;
76380;SDS011;65202;52.520;10.528;2023-05-07T10:32:55;15.77;;;11.48;;
76380;SDS011;65202;52.520;10.528;2023-05-07T10:35:37;14.70;;;11.50;;
76380;SDS011;65202;52.520;10.528;2023-05-07T10:38:08;13.07;;;10.98;;
76380;SDS011;65202;52.520;10.528;2023-05-07T10:40:36;15.07;;;11.63;;
76380;SDS011;65202;52.520;10.528;2023-05-07T10:43:03;13.95;;;10.93;;
76380;SDS011;65202;52.520;10.528;2023-05-07T10:45:36;14.43;;;11.43;;
76380;SDS011;65202;52.520;10.528;2023-05-07T10:48:15;13.63;;;11.05;;
76380;SDS011;65202;52.520;10.528;2023-05-07T10:53:47;14.63;;;11.75;;
76380;SDS011;65202;52.520;10.528;2023-05-07T10:58:45;19.73;;;11.27;;
76380;SDS011;65202;52.520;10.528;2023-05-07T11:01:12;12.48;;;11.05;;
76380;SDS011;65202;52.520;10.528;2023-05-07T11:06:41;14.27;;;11.13;;
76380;SDS011;65202;52.520;10.528;2023-05-07T11:09:08;13.50;;;11.50;;
76380;SDS011;65202;52.520;10.528;2023-05-07T11:17:11;12.57;;;10.73;;
76380;SDS011;65202;52.520;10.528;2023-05-07T11:19:51;14.23;;;12.10;;
76380;SDS011;65202;52.520;10.528;2023-05-07T11:22:35;14.43;;;11.55;;
76380;SDS011;65202;52.520;10.528;2023-05-07T11:25:06;13.73;;;11.75;;
76380;SDS011;65202;52.520;10.528;2023-05-07T11:27:34;16.42;;;12.88;;
76380;SDS011;65202;52.520;10.528;2023-05-07T11:30:01;15.32;;;12.38;;
76380;SDS011;65202;52.520;10.528;2023-05-07T11:32:30;15.68;;;11.75;;
76380;SDS011;65202;52.520;10.528;2023-05-07T11:34:59;14.43;;;11.90;;
76380;SDS011;65202;52.520;10.528;2023-05-07T11:37:27;13.73;;;12.30;;
76380;SDS011;65202;52.520;10.528;2023-05-07T11:40:06;13.27;;;11.02;;
76380;SDS011;65202;52.520;10.528;2023-05-07T11:42:38;13.88;;;10.70;;
76380;SDS011;65202;52.520;10.528;2023-05-07T11:45:07;13.98;;;10.57;;
76380;SDS011;65202;52.520;10.528;2023-05-07T11:47:36;14.52;;;10.77;;
76380;SDS011;65202;52.520;10.528;2023-05-07T11:50:04;12.52;;;10.27;;
76380;SDS011;65202;52.520;10.528;2023-05-07T11:52:34;12.50;;;10.23;;
76380;SDS011;65202;52.520;10.528;2023-05-07T11:55:02;13.43;;;10.50;;
76380;SDS011;65202;52.520;10.528;2023-05-07T11:57:32;11.77;;;10.43;;
76380;SDS011;65202;52.520;10.528;2023-05-07T12:00:01;12.98;;;10.90;;
76380;SDS011;65202;52.520;10.528;2023-05-07T12:02:30;13.65;;;10.70;;
76380;SDS011;65202;52.520;10.528;2023-05-07T12:05:00;14.43;;;10.75;;
76380;SDS011;65202;52.520;10.528;2023-05-07T12:07:27;12.70;;;10.25;;
76380;SDS011;65202;52.520;10.528;2023-05-07T12:09:54;11.43;;;9.48;;
76380;SDS011;65202;52.520;10.528;2023-05-07T12:12:22;11.95;;;9.35;;
76380;SDS011;65202;52.520;10.528;2023-05-07T12:14:49;10.32;;;9.10;;
76380;SDS011;65202;52.520;10.528;2023-05-07T12:17:16;11.50;;;9.13;;
76380;SDS011;65202;52.520;10.528;2023-05-07T12:19:44;11.27;;;9.60;;
76380;SDS011;65202;52.520;10.528;2023-05-07T12:22:12;13.32;;;9.18;;
76380;SDS011;65202;52.520;10.528;2023-05-07T12:24:49;13.23;;;10.18;;
76380;SDS011;65202;52.520;10.528;2023-05-07T12:27:25;12.45;;;9.48;;
76380;SDS011;65202;52.520;10.528;2023-05-07T12:29:53;11.40;;;9.52;;
76380;SDS011;65202;52.520;10.528;2023-05-07T12:32:20;10.90;;;9.68;;
76380;SDS011;65202;52.520;10.528;2023-05-07T12:34:51;11.00;;;9.15;;
76380;SDS011;65202;52.520;10.528;2023-05-07T12:37:24;15.52;;;10.07;;
76380;SDS011;65202;52.520;10.528;2023-05-07T12:40:10;11.75;;;9.15;;
76380;SDS011;65202;52.520;10.528;2023-05-07T12:42:39;13.38;;;9.15;;
76380;SDS011;65202;52.520;10.528;2023-05-07T12:45:10;11.50;;;9.63;;
76380;SDS011;65202;52.520;10.528;2023-05-07T12:47:44;10.73;;;9.20;;
76380;SDS011;65202;52.520;10.528;2023-05-07T12:50:13;11.20;;;9.38;;
76380;SDS011;65202;52.520;10.528;2023-05-07T12:52:45;10.52;;;8.93;;
76380;SDS011;65202;52.520;10.528;2023-05-07T12:55:15;14.00;;;9.50;;
76380;SDS011;65202;52.520;10.528;2023-05-07T12:57:49;10.30;;;8.73;;
76380;SDS011;65202;52.520;10.528;2023-05-07T13:00:31;10.43;;;9.10;;
76380;SDS011;65202;52.520;10.528;2023-05-07T13:03:05;11.35;;;8.90;;
76380;SDS011;65202;52.520;10.528;2023-05-07T13:05:32;11.35;;;9.45;;
76380;SDS011;65202;52.520;10.528;2023-05-07T13:08:00;11.70;;;8.85;;
76380;SDS011;65202;52.520;10.528;2023-05-07T13:10:27;11.43;;;9.00;;
76380;SDS011;65202;52.520;10.528;2023-05-07T13:12:55;12.75;;;8.98;;
76380;SDS011;65202;52.520;10.528;2023-05-07T13:15:22;10.10;;;8.63;;
76380;SDS011;65202;52.520;10.528;2023-05-07T13:17:50;12.88;;;8.85;;
76380;SDS011;65202;52.520;10.528;2023-05-07T13:20:17;10.35;;;8.50;;
76380;SDS011;65202;52.520;10.528;2023-05-07T13:22:44;12.80;;;8.55;;
76380;SDS011;65202;52.520;10.528;2023-05-07T13:25:12;9.80;;;7.75;;
76380;SDS011;65202;52.520;10.528;2023-05-07T13:27:39;10.55;;;8.48;;
76380;SDS011;65202;52.520;10.528;2023-05-07T13:30:07;9.07;;;7.97;;
76380;SDS011;65202;52.520;10.528;2023-05-07T13:32:34;10.27;;;8.63;;
76380;SDS011;65202;52.520;10.528;2023-05-07T13:35:02;9.30;;;7.47;;
76380;SDS011;65202;52.520;10.528;2023-05-07T13:37:29;10.05;;;7.68;;
76380;SDS011;65202;52.520;10.528;2023-05-07T13:39:56;9.82;;;8.20;;
76380;SDS011;65202;52.520;10.528;2023-05-07T13:42:23;9.05;;;7.43;;
76380;SDS011;65202;52.520;10.528;2023-05-07T13:44:50;7.63;;;6.82;;
76380;SDS011;65202;52.520;10.528;2023-05-07T13:47:17;9.95;;;7.90;;
76380;SDS011;65202;52.520;10.528;2023-05-07T13:49:45;12.00;;;7.97;;
76380;SDS011;65202;52.520;10.528;2023-05-07T13:52:12;10.02;;;7.90;;
76380;SDS011;65202;52.520;10.528;2023-05-07T13:54:39;9.55;;;7.93;;
76380;SDS011;65202;52.520;10.528;2023-05-07T13:57:07;10.88;;;8.02;;
76380;SDS011;65202;52.520;10.528;2023-05-07T13:59:34;12.30;;;7.63;;
76380;SDS011;65202;52.520;10.528;2023-05-07T14:02:01;8.50;;;6.80;;
76380;SDS011;65202;52.520;10.528;2023-05-07T14:04:30;8.73;;;7.13;;
76380;SDS011;65202;52.520;10.528;2023-05-07T14:06:57;7.55;;;6.72;;
76380;SDS011;65202;52.520;10.528;2023-05-07T14:09:25;7.43;;;6.53;;
76380;SDS011;65202;52.520;10.528;2023-05-07T14:11:52;7.40;;;6.65;;
76380;SDS011;65202;52.520;10.528;2023-05-07T14:14:19;10.50;;;7.05;;
76380;SDS011;65202;52.520;10.528;2023-05-07T14:16:46;10.13;;;7.70;;
76380;SDS011;65202;52.520;10.528;2023-05-07T14:19:16;8.70;;;7.03;;
76380;SDS011;65202;52.520;10.528;2023-05-07T14:21:43;8.68;;;7.25;;
76380;SDS011;65202;52.520;10.528;2023-05-07T14:24:10;9.18;;;6.47;;
76380;SDS011;65202;52.520;10.528;2023-05-07T14:26:37;13.48;;;7.05;;
76380;SDS011;65202;52.520;10.528;2023-05-07T14:29:05;9.65;;;6.25;;
76380;SDS011;65202;52.520;10.528;2023-05-07T14:31:32;8.63;;;6.68;;
76380;SDS011;65202;52.520;10.528;2023-05-07T14:34:00;7.95;;;6.70;;